sensor_id;sensor_type;location;lat;lon;timestamp;P1;durP1;ratioP1;P2;durP2;ratioP2
55362;SDS011;41244;49.242;9.060;2023-02-24T00:01:20;27.80;;;19.38;;
55362;SDS011;41244;49.242;9.060;2023-02-24T00:04:05;30.13;;;21.08;;
55362;SDS011;41244;49.242;9.060;2023-02-24T00:06:38;32.40;;;22.08;;
55362;SDS011;41244;49.242;9.060;2023-02-24T00:09:15;36.47;;;22.05;;
55362;SDS011;41244;49.242;9.060;2023-02-24T00:11:51;41.25;;;24.50;;
55362;SDS011;41244;49.242;9.060;2023-02-24T00:14:17;44.92;;;24.98;;
55362;SDS011;41244;49.242;9.060;2023-02-24T00:16:43;37.47;;;23.45;;
55362;SDS011;41244;49.242;9.060;2023-02-24T00:19:11;32.90;;;21.40;;
55362;SDS011;41244;49.242;9.060;2023-02-24T00:21:40;30.02;;;20.25;;
55362;SDS011;41244;49.242;9.060;2023-02-24T00:24:07;30.85;;;19.08;;
55362;SDS011;41244;49.242;9.060;2023-02-24T00:26:33;29.65;;;20.20;;
55362;SDS011;41244;49.242;9.060;2023-02-24T00:28:59;31.30;;;21.40;;
55362;SDS011;41244;49.242;9.060;2023-02-24T00:31:28;32.03;;;19.65;;
55362;SDS011;41244;49.242;9.060;2023-02-24T00:33:57;31.30;;;20.25;;
55362;SDS011;41244;49.242;9.060;2023-02-24T00:36:25;26.55;;;18.80;;
55362;SDS011;41244;49.242;9.060;2023-02-24T00:38:58;30.45;;;20.20;;
55362;SDS011;41244;49.242;9.060;2023-02-24T00:41:27;35.13;;;20.67;;
55362;SDS011;41244;49.242;9.060;2023-02-24T00:44:05;36.42;;;23.67;;
55362;SDS011;41244;49.242;9.060;2023-02-24T00:46:37;29.88;;;20.55;;
55362;SDS011;41244;49.242;9.060;2023-02-24T00:49:12;31.27;;;21.63;;
55362;SDS011;41244;49.242;9.060;2023-02-24T00:51:44;33.97;;;22.48;;
55362;SDS011;41244;49.242;9.060;2023-02-24T00:54:13;36.58;;;22.90;;
55362;SDS011;41244;49.242;9.060;2023-02-24T00:56:43;34.13;;;22.05;;
55362;SDS011;41244;49.242;9.060;2023-02-24T00:59:12;34.13;;;21.90;;
55362;SDS011;41244;49.242;9.060;2023-02-24T01:01:39;37.03;;;20.67;;
55362;SDS011;41244;49.242;9.060;2023-02-24T01:04:07;32.75;;;22.17;;
55362;SDS011;41244;49.242;9.060;2023-02-24T01:06:38;33.67;;;20.77;;
55362;SDS011;41244;49.242;9.060;2023-02-24T01:09:13;32.38;;;21.83;;
55362;SDS011;41244;49.242;9.060;2023-02-24T01:11:43;34.33;;;22.17;;
55362;SDS011;41244;49.242;9.060;2023-02-24T01:14:42;31.65;;;21.25;;
55362;SDS011;41244;49.242;9.060;2023-02-24T01:17:11;28.85;;;20.70;;
55362;SDS011;41244;49.242;9.060;2023-02-24T01:19:37;33.10;;;21.15;;
55362;SDS011;41244;49.242;9.060;2023-02-24T01:22:05;31.80;;;20.90;;
55362;SDS011;41244;49.242;9.060;2023-02-24T01:24:35;30.98;;;21.63;;
55362;SDS011;41244;49.242;9.060;2023-02-24T01:27:03;32.00;;;20.40;;
55362;SDS011;41244;49.242;9.060;2023-02-24T01:29:30;29.67;;;21.42;;
55362;SDS011;41244;49.242;9.060;2023-02-24T01:31:56;33.42;;;21.55;;
55362;SDS011;41244;49.242;9.060;2023-02-24T01:34:26;39.72;;;23.02;;
55362;SDS011;41244;49.242;9.060;2023-02-24T01:36:52;34.83;;;23.08;;
55362;SDS011;41244;49.242;9.060;2023-02-24T01:39:19;35.78;;;22.00;;
55362;SDS011;41244;49.242;9.060;2023-02-24T01:41:45;35.92;;;23.67;;
55362;SDS011;41244;49.242;9.060;2023-02-24T01:46:45;34.65;;;22.83;;
55362;SDS011;41244;49.242;9.060;2023-02-24T01:54:32;36.08;;;22.58;;
55362;SDS011;41244;49.242;9.060;2023-02-24T01:57:07;37.65;;;22.73;;
55362;SDS011;41244;49.242;9.060;2023-02-24T01:59:40;35.50;;;21.95;;
55362;SDS011;41244;49.242;9.060;2023-02-24T02:02:07;36.85;;;22.77;;
55362;SDS011;41244;49.242;9.060;2023-02-24T02:04:53;37.47;;;22.20;;
55362;SDS011;41244;49.242;9.060;2023-02-24T02:07:23;36.38;;;23.85;;
55362;SDS011;41244;49.242;9.060;2023-02-24T02:09:50;35.00;;;22.77;;
55362;SDS011;41244;49.242;9.060;2023-02-24T02:12:19;38.28;;;23.83;;
55362;SDS011;41244;49.242;9.060;2023-02-24T02:14:47;35.90;;;23.55;;
55362;SDS011;41244;49.242;9.060;2023-02-24T02:37:11;37.00;;;23.92;;
55362;SDS011;41244;49.242;9.060;2023-02-24T02:40:23;34.83;;;22.75;;
55362;SDS011;41244;49.242;9.060;2023-02-24T02:43:03;36.33;;;23.92;;
55362;SDS011;41244;49.242;9.060;2023-02-24T02:45:43;37.42;;;23.75;;
55362;SDS011;41244;49.242;9.060;2023-02-24T02:48:39;40.25;;;24.80;;
55362;SDS011;41244;49.242;9.060;2023-02-24T02:51:15;42.83;;;24.77;;
55362;SDS011;41244;49.242;9.060;2023-02-24T02:56:49;43.22;;;25.33;;
55362;SDS011;41244;49.242;9.060;2023-02-24T02:59:24;42.42;;;25.77;;
55362;SDS011;41244;49.242;9.060;2023-02-24T03:01:53;53.08;;;27.20;;
55362;SDS011;41244;49.242;9.060;2023-02-24T03:04:25;39.47;;;25.00;;
55362;SDS011;41244;49.242;9.060;2023-02-24T03:06:58;47.53;;;27.50;;
55362;SDS011;41244;49.242;9.060;2023-02-24T03:09:33;41.80;;;25.83;;
55362;SDS011;41244;49.242;9.060;2023-02-24T03:12:03;42.65;;;25.75;;
55362;SDS011;41244;49.242;9.060;2023-02-24T03:17:06;37.78;;;24.05;;
55362;SDS011;41244;49.242;9.060;2023-02-24T03:19:38;37.85;;;24.38;;
55362;SDS011;41244;49.242;9.060;2023-02-24T03:25:00;48.30;;;27.33;;
55362;SDS011;41244;49.242;9.060;2023-02-24T03:27:32;43.17;;;25.67;;
55362;SDS011;41244;49.242;9.060;2023-02-24T03:30:11;46.20;;;27.55;;
55362;SDS011;41244;49.242;9.060;2023-02-24T03:32:43;41.05;;;24.88;;
55362;SDS011;41244;49.242;9.060;2023-02-24T03:35:24;47.83;;;27.88;;
55362;SDS011;41244;49.242;9.060;2023-02-24T03:38:00;48.42;;;26.88;;
55362;SDS011;41244;49.242;9.060;2023-02-24T03:40:27;50.08;;;26.33;;
55362;SDS011;41244;49.242;9.060;2023-02-24T03:43:05;45.35;;;26.88;;
55362;SDS011;41244;49.242;9.060;2023-02-24T03:45:40;41.75;;;27.13;;
55362;SDS011;41244;49.242;9.060;2023-02-24T03:48:07;42.47;;;25.08;;
55362;SDS011;41244;49.242;9.060;2023-02-24T03:50:33;53.17;;;27.92;;
55362;SDS011;41244;49.242;9.060;2023-02-24T04:01:55;51.60;;;28.00;;
55362;SDS011;41244;49.242;9.060;2023-02-24T04:04:53;49.13;;;28.00;;
55362;SDS011;41244;49.242;9.060;2023-02-24T04:10:20;43.47;;;25.85;;
55362;SDS011;41244;49.242;9.060;2023-02-24T04:12:59;45.45;;;27.27;;
55362;SDS011;41244;49.242;9.060;2023-02-24T04:18:09;50.42;;;28.83;;
55362;SDS011;41244;49.242;9.060;2023-02-24T04:20:44;44.67;;;27.40;;
55362;SDS011;41244;49.242;9.060;2023-02-24T04:23:15;43.45;;;25.58;;
55362;SDS011;41244;49.242;9.060;2023-02-24T04:25:43;44.40;;;28.45;;
55362;SDS011;41244;49.242;9.060;2023-02-24T04:28:11;51.72;;;30.05;;
55362;SDS011;41244;49.242;9.060;2023-02-24T04:30:38;45.55;;;28.33;;
55362;SDS011;41244;49.242;9.060;2023-02-24T04:33:08;43.33;;;26.98;;
55362;SDS011;41244;49.242;9.060;2023-02-24T04:35:34;47.65;;;29.30;;
55362;SDS011;41244;49.242;9.060;2023-02-24T04:38:01;52.75;;;29.55;;
55362;SDS011;41244;49.242;9.060;2023-02-24T04:40:27;54.88;;;30.00;;
55362;SDS011;41244;49.242;9.060;2023-02-24T04:42:52;55.42;;;31.38;;
55362;SDS011;41244;49.242;9.060;2023-02-24T04:45:19;46.60;;;29.67;;
55362;SDS011;41244;49.242;9.060;2023-02-24T04:47:54;47.88;;;29.50;;
55362;SDS011;41244;49.242;9.060;2023-02-24T04:50:25;51.97;;;30.23;;
55362;SDS011;41244;49.242;9.060;2023-02-24T04:52:57;51.95;;;30.05;;
55362;SDS011;41244;49.242;9.060;2023-02-24T04:55:26;55.20;;;30.20;;
55362;SDS011;41244;49.242;9.060;2023-02-24T04:57:57;56.08;;;29.85;;
55362;SDS011;41244;49.242;9.060;2023-02-24T05:00:24;52.08;;;30.10;;
55362;SDS011;41244;49.242;9.060;2023-02-24T05:02:52;45.58;;;27.58;;
55362;SDS011;41244;49.242;9.060;2023-02-24T05:05:20;48.47;;;28.85;;
55362;SDS011;41244;49.242;9.060;2023-02-24T05:07:58;46.85;;;27.95;;
55362;SDS011;41244;49.242;9.060;2023-02-24T05:10:39;48.20;;;29.20;;
55362;SDS011;41244;49.242;9.060;2023-02-24T05:13:14;43.33;;;27.33;;
55362;SDS011;41244;49.242;9.060;2023-02-24T05:15:46;45.08;;;27.48;;
55362;SDS011;41244;49.242;9.060;2023-02-24T05:18:13;43.50;;;27.70;;
55362;SDS011;41244;49.242;9.060;2023-02-24T05:20:52;45.55;;;27.42;;
55362;SDS011;41244;49.242;9.060;2023-02-24T05:23:58;45.75;;;27.45;;
55362;SDS011;41244;49.242;9.060;2023-02-24T05:26:28;41.05;;;26.08;;
55362;SDS011;41244;49.242;9.060;2023-02-24T05:28:56;50.78;;;28.55;;
55362;SDS011;41244;49.242;9.060;2023-02-24T05:31:24;49.72;;;28.35;;
55362;SDS011;41244;49.242;9.060;2023-02-24T05:33:53;46.28;;;28.48;;
55362;SDS011;41244;49.242;9.060;2023-02-24T05:36:22;42.88;;;26.60;;
55362;SDS011;41244;49.242;9.060;2023-02-24T05:38:51;47.63;;;28.55;;
55362;SDS011;41244;49.242;9.060;2023-02-24T05:41:32;45.00;;;27.80;;
55362;SDS011;41244;49.242;9.060;2023-02-24T05:44:03;43.75;;;27.15;;
55362;SDS011;41244;49.242;9.060;2023-02-24T05:46:38;44.47;;;28.23;;
55362;SDS011;41244;49.242;9.060;2023-02-24T05:51:39;45.63;;;27.70;;
55362;SDS011;41244;49.242;9.060;2023-02-24T05:54:11;44.50;;;27.42;;
55362;SDS011;41244;49.242;9.060;2023-02-24T05:56:39;58.83;;;29.70;;
55362;SDS011;41244;49.242;9.060;2023-02-24T05:59:08;58.35;;;31.83;;
55362;SDS011;41244;49.242;9.060;2023-02-24T06:01:36;62.97;;;32.38;;
55362;SDS011;41244;49.242;9.060;2023-02-24T06:04:05;54.03;;;31.42;;
55362;SDS011;41244;49.242;9.060;2023-02-24T06:06:33;57.63;;;32.53;;
55362;SDS011;41244;49.242;9.060;2023-02-24T06:09:08;56.78;;;32.05;;
55362;SDS011;41244;49.242;9.060;2023-02-24T06:11:38;66.40;;;31.33;;
55362;SDS011;41244;49.242;9.060;2023-02-24T06:14:05;54.13;;;30.17;;
55362;SDS011;41244;49.242;9.060;2023-02-24T06:16:32;52.88;;;29.85;;
55362;SDS011;41244;49.242;9.060;2023-02-24T06:19:00;56.10;;;30.88;;
55362;SDS011;41244;49.242;9.060;2023-02-24T06:21:25;61.65;;;31.70;;
55362;SDS011;41244;49.242;9.060;2023-02-24T06:23:54;54.65;;;30.95;;
55362;SDS011;41244;49.242;9.060;2023-02-24T06:26:21;54.42;;;30.70;;
55362;SDS011;41244;49.242;9.060;2023-02-24T06:28:50;54.85;;;29.48;;
55362;SDS011;41244;49.242;9.060;2023-02-24T06:31:18;58.95;;;30.25;;
55362;SDS011;41244;49.242;9.060;2023-02-24T06:33:45;54.40;;;30.63;;
55362;SDS011;41244;49.242;9.060;2023-02-24T06:36:11;61.40;;;31.95;;
55362;SDS011;41244;49.242;9.060;2023-02-24T06:38:41;54.00;;;30.38;;
55362;SDS011;41244;49.242;9.060;2023-02-24T06:41:07;59.80;;;30.88;;
55362;SDS011;41244;49.242;9.060;2023-02-24T06:43:39;58.10;;;30.50;;
55362;SDS011;41244;49.242;9.060;2023-02-24T06:46:10;60.63;;;31.23;;
55362;SDS011;41244;49.242;9.060;2023-02-24T06:48:37;59.17;;;29.95;;
55362;SDS011;41244;49.242;9.060;2023-02-24T06:53:40;56.83;;;30.23;;
55362;SDS011;41244;49.242;9.060;2023-02-24T06:56:10;58.75;;;30.95;;
55362;SDS011;41244;49.242;9.060;2023-02-24T06:58:42;54.75;;;29.17;;
55362;SDS011;41244;49.242;9.060;2023-02-24T07:01:16;61.22;;;32.47;;
55362;SDS011;41244;49.242;9.060;2023-02-24T07:03:44;63.45;;;30.90;;
55362;SDS011;41244;49.242;9.060;2023-02-24T07:06:12;63.33;;;32.35;;
55362;SDS011;41244;49.242;9.060;2023-02-24T07:08:52;69.78;;;32.58;;
55362;SDS011;41244;49.242;9.060;2023-02-24T07:11:18;60.47;;;29.92;;
55362;SDS011;41244;49.242;9.060;2023-02-24T07:13:45;64.25;;;30.48;;
55362;SDS011;41244;49.242;9.060;2023-02-24T07:16:16;57.35;;;29.27;;
55362;SDS011;41244;49.242;9.060;2023-02-24T07:18:43;54.58;;;29.02;;
55362;SDS011;41244;49.242;9.060;2023-02-24T07:21:14;65.80;;;33.00;;
55362;SDS011;41244;49.242;9.060;2023-02-24T07:23:42;63.03;;;30.98;;
55362;SDS011;41244;49.242;9.060;2023-02-24T07:26:13;63.55;;;31.15;;
55362;SDS011;41244;49.242;9.060;2023-02-24T07:28:45;62.65;;;30.20;;
55362;SDS011;41244;49.242;9.060;2023-02-24T07:31:12;68.88;;;31.40;;
55362;SDS011;41244;49.242;9.060;2023-02-24T07:33:41;79.75;;;36.42;;
55362;SDS011;41244;49.242;9.060;2023-02-24T07:36:14;69.20;;;32.65;;
55362;SDS011;41244;49.242;9.060;2023-02-24T07:38:47;78.60;;;42.88;;
55362;SDS011;41244;49.242;9.060;2023-02-24T07:41:16;72.53;;;34.75;;
55362;SDS011;41244;49.242;9.060;2023-02-24T07:43:46;67.38;;;31.67;;
55362;SDS011;41244;49.242;9.060;2023-02-24T07:46:21;69.88;;;33.10;;
55362;SDS011;41244;49.242;9.060;2023-02-24T07:48:49;66.30;;;33.83;;
55362;SDS011;41244;49.242;9.060;2023-02-24T07:51:17;66.82;;;30.98;;
55362;SDS011;41244;49.242;9.060;2023-02-24T07:53:49;61.38;;;30.55;;
55362;SDS011;41244;49.242;9.060;2023-02-24T07:56:20;74.18;;;33.92;;
55362;SDS011;41244;49.242;9.060;2023-02-24T07:58:51;75.35;;;33.95;;
55362;SDS011;41244;49.242;9.060;2023-02-24T08:01:23;71.20;;;33.55;;
55362;SDS011;41244;49.242;9.060;2023-02-24T08:03:53;70.90;;;33.83;;
55362;SDS011;41244;49.242;9.060;2023-02-24T08:06:21;67.95;;;30.98;;
55362;SDS011;41244;49.242;9.060;2023-02-24T08:08:51;63.30;;;31.17;;
55362;SDS011;41244;49.242;9.060;2023-02-24T08:11:25;66.93;;;31.60;;
55362;SDS011;41244;49.242;9.060;2023-02-24T08:14:03;69.35;;;32.75;;
55362;SDS011;41244;49.242;9.060;2023-02-24T08:16:35;61.60;;;31.95;;
55362;SDS011;41244;49.242;9.060;2023-02-24T08:19:08;66.50;;;33.90;;
55362;SDS011;41244;49.242;9.060;2023-02-24T08:21:39;69.40;;;33.25;;
55362;SDS011;41244;49.242;9.060;2023-02-24T08:24:12;69.40;;;31.80;;
55362;SDS011;41244;49.242;9.060;2023-02-24T08:26:43;73.53;;;31.45;;
55362;SDS011;41244;49.242;9.060;2023-02-24T08:29:28;67.68;;;30.52;;
55362;SDS011;41244;49.242;9.060;2023-02-24T08:32:21;62.92;;;30.77;;
55362;SDS011;41244;49.242;9.060;2023-02-24T08:35:09;64.65;;;30.63;;
55362;SDS011;41244;49.242;9.060;2023-02-24T08:37:41;64.35;;;31.15;;
55362;SDS011;41244;49.242;9.060;2023-02-24T08:40:17;61.92;;;31.50;;
55362;SDS011;41244;49.242;9.060;2023-02-24T08:43:14;64.93;;;32.15;;
55362;SDS011;41244;49.242;9.060;2023-02-24T08:48:26;71.22;;;33.53;;
55362;SDS011;41244;49.242;9.060;2023-02-24T08:51:14;66.72;;;31.23;;
55362;SDS011;41244;49.242;9.060;2023-02-24T08:53:46;62.13;;;29.52;;
55362;SDS011;41244;49.242;9.060;2023-02-24T08:56:17;66.00;;;31.10;;
55362;SDS011;41244;49.242;9.060;2023-02-24T08:58:51;67.80;;;31.35;;
55362;SDS011;41244;49.242;9.060;2023-02-24T09:01:26;70.20;;;32.58;;
55362;SDS011;41244;49.242;9.060;2023-02-24T09:03:58;70.78;;;32.28;;
55362;SDS011;41244;49.242;9.060;2023-02-24T09:06:49;68.47;;;31.63;;
55362;SDS011;41244;49.242;9.060;2023-02-24T09:09:22;72.65;;;32.67;;
55362;SDS011;41244;49.242;9.060;2023-02-24T09:11:58;66.90;;;30.67;;
55362;SDS011;41244;49.242;9.060;2023-02-24T09:14:28;64.20;;;30.75;;
55362;SDS011;41244;49.242;9.060;2023-02-24T09:17:00;66.20;;;30.58;;
55362;SDS011;41244;49.242;9.060;2023-02-24T09:19:51;64.03;;;30.50;;
55362;SDS011;41244;49.242;9.060;2023-02-24T09:25:21;63.92;;;31.45;;
55362;SDS011;41244;49.242;9.060;2023-02-24T09:30:39;61.38;;;31.20;;
55362;SDS011;41244;49.242;9.060;2023-02-24T09:36:17;59.90;;;29.60;;
55362;SDS011;41244;49.242;9.060;2023-02-24T09:38:54;58.80;;;29.77;;
55362;SDS011;41244;49.242;9.060;2023-02-24T09:41:38;62.03;;;31.35;;
55362;SDS011;41244;49.242;9.060;2023-02-24T09:47:22;59.80;;;29.92;;
55362;SDS011;41244;49.242;9.060;2023-02-24T09:52:48;68.95;;;31.40;;
55362;SDS011;41244;49.242;9.060;2023-02-24T09:55:18;61.47;;;30.20;;
55362;SDS011;41244;49.242;9.060;2023-02-24T09:58:30;65.85;;;30.95;;
55362;SDS011;41244;49.242;9.060;2023-02-24T10:01:47;62.70;;;29.63;;
55362;SDS011;41244;49.242;9.060;2023-02-24T10:13:00;62.85;;;31.83;;
55362;SDS011;41244;49.242;9.060;2023-02-24T10:15:45;62.13;;;31.08;;
55362;SDS011;41244;49.242;9.060;2023-02-24T10:18:32;60.35;;;30.17;;
55362;SDS011;41244;49.242;9.060;2023-02-24T10:26:51;55.67;;;28.48;;
55362;SDS011;41244;49.242;9.060;2023-02-24T10:35:12;50.75;;;27.10;;
55362;SDS011;41244;49.242;9.060;2023-02-24T10:37:40;56.50;;;29.70;;
55362;SDS011;41244;49.242;9.060;2023-02-24T10:40:06;54.00;;;28.60;;
55362;SDS011;41244;49.242;9.060;2023-02-24T10:42:33;53.65;;;27.67;;
55362;SDS011;41244;49.242;9.060;2023-02-24T10:47:42;50.03;;;26.13;;
55362;SDS011;41244;49.242;9.060;2023-02-24T10:50:21;50.42;;;26.55;;
55362;SDS011;41244;49.242;9.060;2023-02-24T10:53:10;49.90;;;26.77;;
55362;SDS011;41244;49.242;9.060;2023-02-24T10:55:58;51.97;;;26.73;;
55362;SDS011;41244;49.242;9.060;2023-02-24T10:59:01;53.72;;;26.33;;
55362;SDS011;41244;49.242;9.060;2023-02-24T11:01:53;48.30;;;25.65;;
55362;SDS011;41244;49.242;9.060;2023-02-24T11:05:06;44.50;;;23.98;;
55362;SDS011;41244;49.242;9.060;2023-02-24T11:08:06;47.00;;;25.05;;
55362;SDS011;41244;49.242;9.060;2023-02-24T11:11:14;46.35;;;23.92;;
55362;SDS011;41244;49.242;9.060;2023-02-24T11:13:58;42.45;;;23.63;;
55362;SDS011;41244;49.242;9.060;2023-02-24T11:19:43;47.72;;;24.17;;
55362;SDS011;41244;49.242;9.060;2023-02-24T11:22:24;42.88;;;23.35;;
55362;SDS011;41244;49.242;9.060;2023-02-24T11:24:59;46.85;;;25.08;;
55362;SDS011;41244;49.242;9.060;2023-02-24T11:27:46;45.33;;;25.45;;
55362;SDS011;41244;49.242;9.060;2023-02-24T11:30:18;45.83;;;24.63;;
55362;SDS011;41244;49.242;9.060;2023-02-24T11:32:59;48.78;;;25.92;;
55362;SDS011;41244;49.242;9.060;2023-02-24T11:35:54;44.80;;;24.05;;
55362;SDS011;41244;49.242;9.060;2023-02-24T11:41:16;44.17;;;24.48;;
55362;SDS011;41244;49.242;9.060;2023-02-24T11:43:57;41.60;;;23.85;;
55362;SDS011;41244;49.242;9.060;2023-02-24T11:46:35;46.13;;;25.67;;
55362;SDS011;41244;49.242;9.060;2023-02-24T11:52:08;42.88;;;25.02;;
55362;SDS011;41244;49.242;9.060;2023-02-24T11:54:56;47.00;;;25.90;;
55362;SDS011;41244;49.242;9.060;2023-02-24T11:57:24;47.88;;;26.30;;
55362;SDS011;41244;49.242;9.060;2023-02-24T12:00:13;41.35;;;25.05;;
55362;SDS011;41244;49.242;9.060;2023-02-24T12:02:47;42.55;;;24.92;;
55362;SDS011;41244;49.242;9.060;2023-02-24T12:05:26;45.15;;;25.35;;
55362;SDS011;41244;49.242;9.060;2023-02-24T12:08:17;47.95;;;26.63;;
55362;SDS011;41244;49.242;9.060;2023-02-24T12:14:21;41.60;;;24.05;;
55362;SDS011;41244;49.242;9.060;2023-02-24T12:17:12;38.38;;;22.27;;
55362;SDS011;41244;49.242;9.060;2023-02-24T12:20:20;38.20;;;21.70;;
55362;SDS011;41244;49.242;9.060;2023-02-24T12:23:16;36.15;;;21.85;;
55362;SDS011;41244;49.242;9.060;2023-02-24T12:26:05;35.03;;;20.13;;
55362;SDS011;41244;49.242;9.060;2023-02-24T12:44:01;34.53;;;20.17;;
55362;SDS011;41244;49.242;9.060;2023-02-24T12:46:42;33.65;;;19.73;;
55362;SDS011;41244;49.242;9.060;2023-02-24T12:57:42;29.23;;;17.65;;
55362;SDS011;41244;49.242;9.060;2023-02-24T13:06:19;31.30;;;18.85;;
55362;SDS011;41244;49.242;9.060;2023-02-24T13:11:45;33.40;;;16.98;;
55362;SDS011;41244;49.242;9.060;2023-02-24T13:14:38;27.52;;;17.10;;
55362;SDS011;41244;49.242;9.060;2023-02-24T13:19:43;33.80;;;17.50;;
55362;SDS011;41244;49.242;9.060;2023-02-24T13:24:35;29.17;;;17.45;;
55362;SDS011;41244;49.242;9.060;2023-02-24T13:27:36;28.50;;;16.75;;
55362;SDS011;41244;49.242;9.060;2023-02-24T13:32:45;30.73;;;17.58;;
55362;SDS011;41244;49.242;9.060;2023-02-24T13:37:41;33.88;;;19.40;;
55362;SDS011;41244;49.242;9.060;2023-02-24T13:48:13;32.47;;;18.77;;
55362;SDS011;41244;49.242;9.060;2023-02-24T13:51:27;29.67;;;17.52;;
55362;SDS011;41244;49.242;9.060;2023-02-24T13:56:54;32.30;;;17.88;;
55362;SDS011;41244;49.242;9.060;2023-02-24T14:02:45;32.13;;;18.23;;
55362;SDS011;41244;49.242;9.060;2023-02-24T14:07:56;26.85;;;17.25;;
55362;SDS011;41244;49.242;9.060;2023-02-24T14:10:23;31.30;;;18.88;;
55362;SDS011;41244;49.242;9.060;2023-02-24T14:13:02;31.08;;;18.92;;
55362;SDS011;41244;49.242;9.060;2023-02-24T14:15:53;34.72;;;20.27;;
55362;SDS011;41244;49.242;9.060;2023-02-24T14:18:21;35.63;;;19.90;;
55362;SDS011;41244;49.242;9.060;2023-02-24T14:20:53;35.47;;;19.58;;
55362;SDS011;41244;49.242;9.060;2023-02-24T14:23:24;37.80;;;21.92;;
55362;SDS011;41244;49.242;9.060;2023-02-24T14:25:53;32.63;;;19.70;;
55362;SDS011;41244;49.242;9.060;2023-02-24T14:28:30;36.83;;;21.45;;
55362;SDS011;41244;49.242;9.060;2023-02-24T14:31:00;38.33;;;21.95;;
55362;SDS011;41244;49.242;9.060;2023-02-24T14:33:33;38.38;;;22.85;;
55362;SDS011;41244;49.242;9.060;2023-02-24T14:36:05;39.83;;;22.52;;
55362;SDS011;41244;49.242;9.060;2023-02-24T14:38:42;37.17;;;22.33;;
55362;SDS011;41244;49.242;9.060;2023-02-24T14:41:19;41.67;;;23.20;;
55362;SDS011;41244;49.242;9.060;2023-02-24T14:43:47;41.92;;;25.58;;
55362;SDS011;41244;49.242;9.060;2023-02-24T14:46:14;40.13;;;23.80;;
55362;SDS011;41244;49.242;9.060;2023-02-24T14:48:41;38.13;;;22.23;;
55362;SDS011;41244;49.242;9.060;2023-02-24T14:51:27;41.53;;;22.58;;
55362;SDS011;41244;49.242;9.060;2023-02-24T14:53:59;42.42;;;23.95;;
55362;SDS011;41244;49.242;9.060;2023-02-24T14:56:29;43.97;;;23.17;;
55362;SDS011;41244;49.242;9.060;2023-02-24T14:59:07;35.65;;;21.48;;
55362;SDS011;41244;49.242;9.060;2023-02-24T15:01:59;39.60;;;21.98;;
55362;SDS011;41244;49.242;9.060;2023-02-24T15:07:03;37.78;;;20.23;;
55362;SDS011;41244;49.242;9.060;2023-02-24T15:09:33;33.15;;;19.98;;
55362;SDS011;41244;49.242;9.060;2023-02-24T15:15:02;35.88;;;21.80;;
55362;SDS011;41244;49.242;9.060;2023-02-24T15:17:41;35.03;;;19.58;;
55362;SDS011;41244;49.242;9.060;2023-02-24T15:20:26;34.75;;;20.38;;
55362;SDS011;41244;49.242;9.060;2023-02-24T15:22:57;32.67;;;20.00;;
55362;SDS011;41244;49.242;9.060;2023-02-24T15:25:24;33.83;;;19.33;;
55362;SDS011;41244;49.242;9.060;2023-02-24T15:30:25;30.25;;;19.92;;
55362;SDS011;41244;49.242;9.060;2023-02-24T15:33:01;31.98;;;18.63;;
55362;SDS011;41244;49.242;9.060;2023-02-24T15:35:53;30.52;;;20.20;;
55362;SDS011;41244;49.242;9.060;2023-02-24T15:38:23;34.67;;;20.58;;
55362;SDS011;41244;49.242;9.060;2023-02-24T15:41:01;35.97;;;20.75;;
55362;SDS011;41244;49.242;9.060;2023-02-24T15:43:36;35.92;;;22.27;;
55362;SDS011;41244;49.242;9.060;2023-02-24T15:46:15;31.08;;;20.10;;
55362;SDS011;41244;49.242;9.060;2023-02-24T15:48:56;32.50;;;19.55;;
55362;SDS011;41244;49.242;9.060;2023-02-24T15:51:31;36.78;;;21.65;;
55362;SDS011;41244;49.242;9.060;2023-02-24T15:54:03;33.92;;;21.73;;
55362;SDS011;41244;49.242;9.060;2023-02-24T15:56:36;34.20;;;20.92;;
55362;SDS011;41244;49.242;9.060;2023-02-24T15:59:03;33.03;;;19.48;;
55362;SDS011;41244;49.242;9.060;2023-02-24T16:01:30;37.60;;;20.88;;
55362;SDS011;41244;49.242;9.060;2023-02-24T16:03:57;33.85;;;20.08;;
55362;SDS011;41244;49.242;9.060;2023-02-24T16:06:24;33.35;;;19.98;;
55362;SDS011;41244;49.242;9.060;2023-02-24T16:08:50;36.88;;;20.45;;
55362;SDS011;41244;49.242;9.060;2023-02-24T16:11:18;37.08;;;21.65;;
55362;SDS011;41244;49.242;9.060;2023-02-24T16:13:49;35.05;;;21.05;;
55362;SDS011;41244;49.242;9.060;2023-02-24T16:16:17;36.67;;;21.45;;
55362;SDS011;41244;49.242;9.060;2023-02-24T16:18:44;35.50;;;21.48;;
55362;SDS011;41244;49.242;9.060;2023-02-24T16:21:09;38.15;;;22.85;;
55362;SDS011;41244;49.242;9.060;2023-02-24T16:23:35;32.28;;;20.02;;
55362;SDS011;41244;49.242;9.060;2023-02-24T16:26:05;36.22;;;22.65;;
55362;SDS011;41244;49.242;9.060;2023-02-24T16:28:42;34.70;;;20.98;;
55362;SDS011;41244;49.242;9.060;2023-02-24T16:31:15;37.30;;;21.42;;
55362;SDS011;41244;49.242;9.060;2023-02-24T16:33:41;32.40;;;20.88;;
55362;SDS011;41244;49.242;9.060;2023-02-24T16:36:13;36.63;;;21.15;;
55362;SDS011;41244;49.242;9.060;2023-02-24T16:38:40;31.70;;;20.05;;
55362;SDS011;41244;49.242;9.060;2023-02-24T16:41:08;34.90;;;20.42;;
55362;SDS011;41244;49.242;9.060;2023-02-24T16:43:36;30.67;;;19.35;;
55362;SDS011;41244;49.242;9.060;2023-02-24T16:46:03;31.17;;;17.80;;
55362;SDS011;41244;49.242;9.060;2023-02-24T16:48:32;36.65;;;21.23;;
55362;SDS011;41244;49.242;9.060;2023-02-24T16:51:01;28.90;;;18.15;;
55362;SDS011;41244;49.242;9.060;2023-02-24T16:53:31;37.63;;;19.55;;
55362;SDS011;41244;49.242;9.060;2023-02-24T16:55:57;37.55;;;20.15;;
55362;SDS011;41244;49.242;9.060;2023-02-24T16:58:23;31.63;;;19.17;;
55362;SDS011;41244;49.242;9.060;2023-02-24T17:00:49;29.92;;;18.75;;
55362;SDS011;41244;49.242;9.060;2023-02-24T17:05:52;36.35;;;20.20;;
55362;SDS011;41244;49.242;9.060;2023-02-24T17:08:18;28.05;;;18.67;;
55362;SDS011;41244;49.242;9.060;2023-02-24T17:10:45;31.95;;;19.77;;
55362;SDS011;41244;49.242;9.060;2023-02-24T17:13:12;37.30;;;21.05;;
55362;SDS011;41244;49.242;9.060;2023-02-24T17:15:43;44.55;;;25.10;;
55362;SDS011;41244;49.242;9.060;2023-02-24T17:18:09;55.72;;;30.13;;
55362;SDS011;41244;49.242;9.060;2023-02-24T17:20:35;37.80;;;23.00;;
55362;SDS011;41244;49.242;9.060;2023-02-24T17:23:03;40.40;;;23.75;;
55362;SDS011;41244;49.242;9.060;2023-02-24T17:25:29;30.20;;;19.42;;
55362;SDS011;41244;49.242;9.060;2023-02-24T17:27:56;36.58;;;19.48;;
55362;SDS011;41244;49.242;9.060;2023-02-24T17:30:25;32.03;;;19.33;;
55362;SDS011;41244;49.242;9.060;2023-02-24T17:32:54;37.13;;;20.15;;
55362;SDS011;41244;49.242;9.060;2023-02-24T17:35:20;30.95;;;19.17;;
55362;SDS011;41244;49.242;9.060;2023-02-24T17:37:46;29.48;;;18.75;;
55362;SDS011;41244;49.242;9.060;2023-02-24T17:40:13;33.33;;;21.00;;
55362;SDS011;41244;49.242;9.060;2023-02-24T17:42:39;30.35;;;19.42;;
55362;SDS011;41244;49.242;9.060;2023-02-24T17:45:05;38.65;;;22.10;;
55362;SDS011;41244;49.242;9.060;2023-02-24T17:47:32;31.52;;;19.25;;
55362;SDS011;41244;49.242;9.060;2023-02-24T17:49:59;34.33;;;22.13;;
55362;SDS011;41244;49.242;9.060;2023-02-24T17:52:26;32.05;;;19.80;;
55362;SDS011;41244;49.242;9.060;2023-02-24T17:54:53;29.92;;;20.65;;
55362;SDS011;41244;49.242;9.060;2023-02-24T17:57:19;31.80;;;20.65;;